Time;durP1;ratioP1;P1;durP2;ratioP2;P2;SDS_P1;SDS_P2;PMS_P1;PMS_P2;Temp;Humidity;BMP_temperature;BMP_pressure;BME280_temperature;BME280_humidity;BME280_pressure;Samples;Min_cycle;Max_cycle;Signal;HPM_P1;HPM_P2
2021/12/17 00:00:58;;;;;;;18.02;12.73;;;;;;;4.26;100.00;98742.06;5091532;28;20780;-62
2021/12/17 00:03:38;;;;;;;15.82;12.05;;;;;;;4.47;100.00;98743.53;5091826;28;20398;-63
2021/12/17 00:06:19;;;;;;;15.30;11.70;;;;;;;4.25;100.00;98753.38;5090766;28;20886;-62
2021/12/17 00:08:49;;;;;;;19.52;12.40;;;;;;;4.53;100.00;98752.53;5091558;28;20397;-62
2021/12/17 00:11:14;;;;;;;17.73;12.77;;;;;;;4.51;100.00;98747.47;5091506;28;20754;-62
2021/12/17 00:13:42;;;;;;;18.10;12.98;;;;;;;4.40;100.00;98739.84;5090945;28;20389;-62
2021/12/17 00:16:15;;;;;;;19.30;14.23;;;;;;;4.35;100.00;98746.41;5091470;28;20386;-62
2021/12/17 00:48:46;;;;;;;18.27;13.60;;;;;;;4.53;100.00;98723.97;5091711;28;20400;-62
2021/12/17 00:53:43;;;;;;;18.85;13.20;;;;;;;4.68;100.00;98716.56;5091137;28;20882;-63
2021/12/17 00:56:09;;;;;;;15.73;12.60;;;;;;;4.87;100.00;98716.47;5090339;28;20443;-63
2021/12/17 00:58:34;;;;;;;17.37;12.70;;;;;;;4.85;100.00;98721.81;5091348;28;20406;-63
2021/12/17 01:01:00;;;;;;;16.83;12.85;;;;;;;5.00;100.00;98717.81;5091190;28;20390;-63
2021/12/17 01:03:25;;;;;;;14.60;11.77;;;;;;;5.29;100.00;98727.25;5091335;28;20401;-63
2021/12/17 01:05:51;;;;;;;16.77;12.43;;;;;;;5.37;99.33;98716.91;5091089;28;20451;-63
2021/12/17 01:08:16;;;;;;;16.60;12.70;;;;;;;5.45;98.49;98711.81;5090268;28;20905;-63
2021/12/17 01:10:48;;;;;;;17.37;12.90;;;;;;;5.18;99.96;98709.25;5095037;28;20390;-63
2021/12/17 01:13:14;;;;;;;16.63;12.57;;;;;;;5.29;99.77;98691.66;5094371;28;20398;-63
2021/12/17 01:15:42;;;;;;;15.88;12.38;;;;;;;5.16;100.00;98696.38;5094350;28;20754;-63
2021/12/17 01:18:13;;;;;;;16.83;11.77;;;;;;;5.38;100.00;98687.34;5094346;28;20393;-63
2021/12/17 01:36:52;;;;;;;17.83;13.40;;;;;;;4.98;100.00;98718.88;5094244;28;20420;-62
2021/12/17 01:42:13;;;;;;;18.15;13.63;;;;;;;4.83;100.00;98728.94;5056480;28;20420;-64
2021/12/17 01:44:42;;;;;;;19.20;13.67;;;;;;;4.88;100.00;98733.72;5093997;28;20498;-63
2021/12/17 01:47:10;;;;;;;18.33;13.20;;;;;;;4.92;100.00;98733.28;5094463;28;20734;-62
2021/12/17 02:00:28;;;;;;;19.33;14.05;;;;;;;4.94;100.00;98720.97;5094173;28;20412;-63
2021/12/17 02:02:58;;;;;;;17.13;13.90;;;;;;;4.62;100.00;98717.13;5094052;28;20417;-63
2021/12/17 02:05:23;;;;;;;19.05;13.60;;;;;;;4.77;100.00;98713.91;5093783;28;20758;-63
2021/12/17 02:07:52;;;;;;;15.73;12.33;;;;;;;4.89;100.00;98702.41;5093493;28;20407;-63
2021/12/17 02:19:25;;;;;;;17.88;12.73;;;;;;;4.71;100.00;98708.47;5093628;28;20394;-63
2021/12/17 02:32:02;;;;;;;16.35;12.60;;;;;;;5.10;100.00;98683.13;5085816;28;20417;-63
2021/12/17 02:37:20;;;;;;;15.73;11.80;;;;;;;5.08;100.00;98672.88;5087544;28;20925;-63
2021/12/17 02:40:16;;;;;;;13.88;11.38;;;;;;;5.18;100.00;98675.44;5093170;28;20509;-62
2021/12/17 02:45:35;;;;;;;13.18;10.98;;;;;;;5.07;100.00;98666.03;5093249;28;20405;-63
2021/12/17 02:48:04;;;;;;;15.65;12.50;;;;;;;5.02;100.00;98652.66;5093226;28;20401;-63
2021/12/17 02:50:30;;;;;;;16.33;12.05;;;;;;;5.28;100.00;98660.59;5093342;28;20473;-63
2021/12/17 02:52:57;;;;;;;15.02;11.80;;;;;;;5.03;100.00;98652.53;5091766;28;20421;-63
2021/12/17 02:55:23;;;;;;;16.38;12.32;;;;;;;5.13;100.00;98649.88;5092833;28;20408;-62
2021/12/17 02:57:49;;;;;;;15.13;12.90;;;;;;;5.31;100.00;98655.09;5091519;28;20481;-63
2021/12/17 03:00:15;;;;;;;18.17;13.63;;;;;;;5.41;100.00;98653.25;5091597;28;20878;-62
2021/12/17 03:02:43;;;;;;;16.38;12.65;;;;;;;5.32;100.00;98652.34;5092663;28;20418;-63
2021/12/17 03:05:09;;;;;;;16.40;12.75;;;;;;;5.31;100.00;98644.69;5092753;28;20410;-62
2021/12/17 03:07:39;;;;;;;17.48;12.98;;;;;;;5.60;100.00;98641.88;5092195;28;20405;-63
2021/12/17 03:10:09;;;;;;;17.63;14.10;;;;;;;5.62;100.00;98651.19;5092563;28;20448;-63
2021/12/17 03:12:42;;;;;;;17.27;12.63;;;;;;;5.35;100.00;98653.88;5092778;28;20387;-62
2021/12/17 03:18:12;;;;;;;16.00;13.33;;;;;;;5.05;100.00;98646.38;5092571;28;20390;-63
2021/12/17 03:23:32;;;;;;;15.70;12.43;;;;;;;5.39;100.00;98650.81;5092322;28;20404;-63
2021/12/17 03:26:12;;;;;;;17.17;12.80;;;;;;;5.22;100.00;98649.00;5092580;28;20776;-62
2021/12/17 03:28:41;;;;;;;17.02;11.90;;;;;;;5.30;100.00;98658.66;5092385;28;20394;-63
2021/12/17 03:31:07;;;;;;;15.38;11.82;;;;;;;5.16;100.00;98653.97;5092094;28;20389;-62
2021/12/17 03:33:34;;;;;;;17.67;12.55;;;;;;;5.26;100.00;98652.13;5090827;28;20390;-64
2021/12/17 03:35:59;;;;;;;16.58;13.07;;;;;;;5.55;100.00;98654.53;5075997;28;20413;-63
2021/12/17 03:38:26;;;;;;;16.23;11.52;;;;;;;5.40;100.00;98660.25;5092416;28;20481;-63
2021/12/17 03:41:03;;;;;;;14.77;12.07;;;;;;;5.31;100.00;98657.69;5092167;28;20395;-62
2021/12/17 03:43:30;;;;;;;15.35;10.98;;;;;;;5.36;100.00;98668.47;5091950;28;20385;-63
2021/12/17 03:45:57;;;;;;;15.30;12.02;;;;;;;5.38;100.00;98659.56;5091817;28;20386;-63
2021/12/17 03:48:23;;;;;;;15.85;11.95;;;;;;;5.15;100.00;98670.53;5091936;28;20858;-62
2021/12/17 03:50:48;;;;;;;18.40;12.02;;;;;;;5.24;100.00;98667.84;5091833;28;20386;-63
2021/12/17 03:53:13;;;;;;;15.90;11.98;;;;;;;5.34;100.00;98670.41;5092388;28;20426;-63
2021/12/17 03:55:39;;;;;;;15.27;10.80;;;;;;;5.17;100.00;98673.81;5091387;28;20459;-63
2021/12/17 03:58:05;;;;;;;13.32;10.68;;;;;;;5.26;100.00;98668.53;5091907;28;20417;-63
2021/12/17 04:00:30;;;;;;;13.77;10.60;;;;;;;5.05;100.00;98674.97;5092032;28;20497;-62
2021/12/17 04:02:56;;;;;;;15.30;10.30;;;;;;;4.94;100.00;98676.81;5090868;28;20389;-62
2021/12/17 04:05:23;;;;;;;12.97;10.03;;;;;;;4.96;100.00;98672.25;5091466;28;20394;-63
2021/12/17 04:07:48;;;;;;;15.97;11.47;;;;;;;4.97;100.00;98670.47;5091560;28;20433;-63
2021/12/17 04:10:14;;;;;;;15.07;11.80;;;;;;;5.11;100.00;98669.19;5091621;28;20425;-63
2021/12/17 04:13:04;;;;;;;16.85;11.73;;;;;;;4.88;100.00;98664.38;5091836;28;20740;-63
2021/12/17 04:15:37;;;;;;;14.30;11.07;;;;;;;4.82;100.00;98658.94;5091547;28;20716;-63
2021/12/17 04:18:07;;;;;;;14.23;10.73;;;;;;;4.72;100.00;98659.00;5091833;28;20389;-63
2021/12/17 04:20:34;;;;;;;12.93;10.18;;;;;;;4.67;100.00;98662.97;5090360;28;20427;-63
2021/12/17 04:22:59;;;;;;;13.20;10.30;;;;;;;4.75;100.00;98663.06;5091727;28;20393;-63
2021/12/17 04:25:25;;;;;;;14.20;10.40;;;;;;;4.86;100.00;98662.88;5090353;28;20758;-64
2021/12/17 04:27:51;;;;;;;14.95;11.07;;;;;;;4.59;100.00;98661.91;5091468;28;20402;-64
2021/12/17 04:30:16;;;;;;;14.60;10.93;;;;;;;4.60;100.00;98660.13;5091751;28;20484;-63
2021/12/17 04:32:41;;;;;;;10.73;9.20;;;;;;;4.57;100.00;98674.19;5091377;28;20389;-64
2021/12/17 04:35:07;;;;;;;12.73;9.55;;;;;;;4.65;100.00;98665.72;5091680;28;20393;-64
2021/12/17 04:37:33;;;;;;;17.38;10.77;;;;;;;4.89;100.00;98667.81;5091704;28;20535;-64
2021/12/17 04:39:59;;;;;;;14.30;10.88;;;;;;;4.87;100.00;98662.75;5091395;28;20897;-64
2021/12/17 04:42:42;;;;;;;12.95;10.23;;;;;;;4.96;100.00;98650.66;5091587;28;20382;-64
2021/12/17 04:45:07;;;;;;;12.80;9.60;;;;;;;5.12;100.00;98643.06;5088400;28;20389;-63
2021/12/17 04:58:28;;;;;;;9.83;8.73;;;;;;;5.21;100.00;98644.78;5094924;28;20385;-64
2021/12/17 05:00:55;;;;;;;10.50;8.47;;;;;;;5.28;100.00;98645.00;5093469;28;20389;-64
2021/12/17 05:03:21;;;;;;;9.45;8.27;;;;;;;5.16;100.00;98639.19;5093988;28;20451;-64
2021/12/17 05:05:46;;;;;;;8.98;7.53;;;;;;;4.96;100.00;98648.88;5094670;28;20390;-64
2021/12/17 05:08:16;;;;;;;8.27;6.67;;;;;;;4.84;100.00;98654.44;5095107;28;20447;-63
2021/12/17 05:11:14;;;;;;;8.75;7.45;;;;;;;4.88;100.00;98650.56;5094972;28;20400;-64
2021/12/17 05:19:03;;;;;;;9.55;7.97;;;;;;;4.76;100.00;98636.97;5094653;28;20409;-63
2021/12/17 05:21:29;;;;;;;9.43;7.55;;;;;;;4.74;100.00;98631.06;5094801;28;20382;-64
2021/12/17 05:23:54;;;;;;;9.35;7.85;;;;;;;4.95;100.00;98641.25;5094572;28;20444;-64
2021/12/17 05:26:21;;;;;;;9.50;8.10;;;;;;;5.07;100.00;98639.25;5094812;28;20426;-64
2021/12/17 05:28:48;;;;;;;10.45;8.43;;;;;;;5.21;100.00;98630.97;5094329;28;20418;-64
2021/12/17 05:31:16;;;;;;;9.30;8.15;;;;;;;5.31;100.00;98632.53;5094925;28;20397;-63
2021/12/17 05:33:41;;;;;;;9.75;8.05;;;;;;;5.29;100.00;98638.84;5094225;28;20402;-64
2021/12/17 05:36:07;;;;;;;8.70;7.50;;;;;;;5.25;99.56;98638.31;5093178;28;20404;-64
2021/12/17 05:38:32;;;;;;;10.77;7.97;;;;;;;5.16;100.00;98636.59;5094117;28;20567;-64
2021/12/17 05:40:58;;;;;;;10.23;8.13;;;;;;;5.13;100.00;98631.69;5093659;28;20455;-64
2021/12/17 05:43:23;;;;;;;10.50;8.00;;;;;;;4.98;100.00;98630.56;5092886;28;20473;-64
2021/12/17 05:48:22;;;;;;;9.63;7.43;;;;;;;4.78;100.00;98627.25;5094597;28;20402;-64
2021/12/17 05:50:51;;;;;;;8.93;7.15;;;;;;;4.79;100.00;98628.84;5094244;28;20414;-64
2021/12/17 05:53:18;;;;;;;9.02;7.43;;;;;;;4.89;100.00;98621.84;5093512;28;20413;-63
2021/12/17 05:55:43;;;;;;;8.10;6.85;;;;;;;4.96;99.68;98624.66;5091615;28;20382;-64
2021/12/17 05:58:11;;;;;;;8.35;6.78;;;;;;;5.02;99.99;98627.50;5094515;28;20746;-64
2021/12/17 06:00:39;;;;;;;8.27;6.80;;;;;;;5.09;99.21;98624.31;5093796;28;20402;-64
2021/12/17 06:03:05;;;;;;;7.90;6.65;;;;;;;5.26;98.12;98615.72;5093285;28;20385;-63
2021/12/17 06:05:30;;;;;;;7.73;6.57;;;;;;;5.37;98.24;98624.13;5093485;28;20418;-64
2021/12/17 06:07:57;;;;;;;8.27;7.18;;;;;;;5.39;97.66;98626.59;5093804;28;20397;-64
2021/12/17 06:10:22;;;;;;;9.88;7.30;;;;;;;5.50;97.04;98623.78;5093495;28;20390;-64
2021/12/17 06:12:48;;;;;;;8.43;7.05;;;;;;;5.30;97.62;98628.28;5093380;28;20405;-64
2021/12/17 06:15:16;;;;;;;8.85;7.43;;;;;;;5.30;98.31;98633.47;5092945;28;20800;-64
2021/12/17 06:17:43;;;;;;;7.60;6.60;;;;;;;4.94;98.61;98621.41;5092159;28;20400;-63
2021/12/17 06:20:11;;;;;;;7.63;6.67;;;;;;;5.00;98.25;98626.84;5093423;28;20405;-64
2021/12/17 06:22:37;;;;;;;8.93;7.50;;;;;;;5.20;98.19;98639.72;5093311;28;20382;-63
2021/12/17 06:25:04;;;;;;;8.27;7.23;;;;;;;4.92;98.71;98641.53;5092128;28;20401;-63
2021/12/17 06:27:30;;;;;;;10.82;9.13;;;;;;;4.71;100.00;98648.75;5093274;28;20484;-63
2021/12/17 06:29:57;;;;;;;14.05;10.00;;;;;;;4.84;100.00;98651.84;5093582;28;20488;-63
2021/12/17 06:32:23;;;;;;;10.02;8.50;;;;;;;4.77;100.00;98649.00;5093228;28;20471;-63
2021/12/17 06:34:48;;;;;;;10.77;8.43;;;;;;;4.79;100.00;98648.84;5091686;28;20386;-63
2021/12/17 06:37:17;;;;;;;11.80;9.73;;;;;;;4.89;100.00;98658.22;5092895;28;21177;-63
2021/12/17 06:39:43;;;;;;;11.63;9.13;;;;;;;4.74;100.00;98648.44;5093021;28;20433;-63
2021/12/17 06:42:10;;;;;;;11.90;9.13;;;;;;;4.90;100.00;98648.66;5093258;28;20475;-64
2021/12/17 06:44:37;;;;;;;10.73;8.77;;;;;;;5.05;99.39;98641.19;5091635;28;20382;-63
2021/12/17 06:47:11;;;;;;;10.18;8.43;;;;;;;4.85;100.00;98637.84;5093114;28;20409;-64
2021/12/17 06:55:37;;;;;;;11.18;9.05;;;;;;;4.95;100.00;98665.44;5069192;28;20870;-63
2021/12/17 06:58:37;;;;;;;12.52;9.43;;;;;;;5.20;99.88;98658.72;5092205;28;20427;-64
2021/12/17 07:01:15;;;;;;;11.25;9.10;;;;;;;5.02;100.00;98643.09;5092255;28;20453;-64
2021/12/17 07:17:22;;;;;;;10.85;8.77;;;;;;;4.77;100.00;98672.38;5085789;28;20849;-64
2021/12/17 07:32:15;;;;;;;9.18;6.82;;;;;;;4.83;97.32;98689.16;5092458;28;20747;-63
2021/12/17 07:33:37;;;;;;;10.40;8.45;;;;;;;4.99;99.91;98686.75;5037662;28;21018;-66
2021/12/17 07:36:15;;;;;;;6.75;6.05;;;;;;;5.25;95.49;98679.06;5042005;28;20459;-65
2021/12/17 07:41:09;;;;;;;6.63;5.93;;;;;;;5.04;95.66;98692.34;5036717;28;20436;-64
2021/12/17 07:43:38;;;;;;;6.65;5.95;;;;;;;4.94;95.55;98694.16;5033269;28;20438;-65
2021/12/17 07:46:05;;;;;;;7.05;5.82;;;;;;;4.70;95.04;98691.25;5031390;28;20453;-69
2021/12/17 07:48:31;;;;;;;6.93;6.22;;;;;;;4.47;96.73;98683.81;5029740;28;20807;-65
2021/12/17 07:50:59;;;;;;;6.45;5.80;;;;;;;4.56;96.54;98685.56;5038560;28;20403;-65
2021/12/17 07:53:24;;;;;;;7.80;6.28;;;;;;;4.65;96.49;98689.09;5042781;28;20924;-65
2021/12/17 07:55:50;;;;;;;8.80;6.40;;;;;;;4.73;95.53;98686.59;5015287;28;20440;-65
2021/12/17 07:58:15;;;;;;;6.83;6.13;;;;;;;4.60;95.93;98686.91;5043538;28;20399;-65
2021/12/17 08:00:41;;;;;;;7.88;6.20;;;;;;;4.77;95.69;98690.53;5040302;28;20486;-69
2021/12/17 08:03:07;;;;;;;6.72;6.07;;;;;;;4.87;94.51;98683.53;5019751;28;20409;-66
2021/12/17 08:05:32;;;;;;;7.70;5.53;;;;;;;4.60;94.43;98688.69;5021897;28;21259;-65
2021/12/17 08:07:58;;;;;;;7.50;6.13;;;;;;;4.71;94.95;98695.50;5034274;28;20748;-65
2021/12/17 08:10:23;;;;;;;6.28;5.65;;;;;;;4.74;94.06;98695.19;5063064;28;20408;-65
2021/12/17 08:12:53;;;;;;;6.63;5.80;;;;;;;4.60;94.79;98699.91;5090635;28;20885;-65
2021/12/17 08:15:22;;;;;;;6.05;5.45;;;;;;;4.57;94.31;98700.16;5091671;28;20451;-65
2021/12/17 08:18:17;;;;;;;6.63;5.40;;;;;;;4.56;94.76;98702.94;5091379;28;20480;-65
2021/12/17 08:26:14;;;;;;;6.70;5.50;;;;;;;5.00;91.69;98694.41;5095935;28;20746;-65
2021/12/17 08:31:25;;;;;;;5.82;5.32;;;;;;;5.37;89.52;98704.72;5073713;28;20402;-65
2021/12/17 08:33:51;;;;;;;5.90;5.30;;;;;;;5.14;89.71;98700.91;5095453;28;20409;-65
2021/12/17 08:36:17;;;;;;;5.78;5.20;;;;;;;5.10;90.32;98704.75;5094628;28;20402;-66
2021/12/17 08:38:49;;;;;;;5.40;4.90;;;;;;;4.88;90.05;98699.94;5095069;28;20418;-65
2021/12/17 08:41:15;;;;;;;8.38;6.50;;;;;;;4.92;90.76;98704.69;5094341;28;20417;-65
2021/12/17 08:43:41;;;;;;;10.35;8.27;;;;;;;5.24;90.07;98706.84;5095192;28;20390;-65
2021/12/17 08:46:06;;;;;;;10.77;8.55;;;;;;;5.26;89.67;98710.13;5094438;28;20796;-66
2021/12/17 08:48:33;;;;;;;5.63;5.10;;;;;;;5.16;89.59;98713.75;5094588;28;20390;-65
2021/12/17 08:51:00;;;;;;;7.20;5.65;;;;;;;5.34;88.57;98710.25;5094349;28;20443;-65
2021/12/17 08:53:26;;;;;;;5.68;5.10;;;;;;;5.24;88.17;98709.44;5095078;28;20394;-65
2021/12/17 08:55:52;;;;;;;6.38;5.13;;;;;;;5.35;88.14;98709.25;5094616;28;20397;-65
2021/12/17 08:58:17;;;;;;;5.78;5.20;;;;;;;5.15;88.37;98704.31;5095013;28;20390;-65
2021/12/17 09:00:45;;;;;;;6.77;5.47;;;;;;;5.07;88.93;98720.63;5094827;28;20752;-65
2021/12/17 09:03:12;;;;;;;6.00;5.23;;;;;;;5.33;88.83;98713.78;5094542;28;20386;-65
2021/12/17 09:05:39;;;;;;;5.97;5.40;;;;;;;5.60;88.11;98704.31;5093416;28;20485;-65
2021/12/17 09:08:09;;;;;;;5.82;5.20;;;;;;;5.61;87.03;98711.97;5094950;28;20880;-65
2021/12/17 09:10:36;;;;;;;5.80;5.20;;;;;;;5.70;86.67;98712.84;5094301;28;20894;-65
2021/12/17 09:13:03;;;;;;;6.10;5.22;;;;;;;6.10;85.45;98710.66;5093114;28;20398;-69
2021/12/17 09:15:28;;;;;;;5.80;5.10;;;;;;;5.91;85.86;98707.41;5092951;28;20420;-65
2021/12/17 09:17:54;;;;;;;6.20;5.37;;;;;;;6.22;84.61;98719.03;5093876;28;20811;-65
2021/12/17 09:20:19;;;;;;;6.23;5.60;;;;;;;6.16;84.27;98709.22;5093813;28;20428;-63
2021/12/17 09:22:45;;;;;;;6.50;5.50;;;;;;;6.28;83.23;98713.22;5094637;28;20479;-64
2021/12/17 09:25:11;;;;;;;5.57;5.07;;;;;;;6.19;83.27;98717.53;5093423;28;20382;-64
2021/12/17 09:27:37;;;;;;;6.18;5.35;;;;;;;6.19;83.47;98719.31;5094558;28;20382;-64
2021/12/17 09:30:12;;;;;;;6.15;5.55;;;;;;;6.28;83.67;98709.81;5093763;28;20397;-65
2021/12/17 09:32:39;;;;;;;5.97;5.38;;;;;;;6.58;82.56;98711.94;5094380;28;20394;-65
2021/12/17 09:35:06;;;;;;;5.88;5.28;;;;;;;6.46;82.08;98703.59;5093989;28;20390;-65
2021/12/17 09:37:31;;;;;;;5.78;5.20;;;;;;;6.24;82.24;98704.88;5093607;28;20426;-65
2021/12/17 09:39:57;;;;;;;5.67;5.13;;;;;;;6.16;83.75;98698.81;5092734;28;20467;-66
2021/12/17 09:42:22;;;;;;;5.93;5.33;;;;;;;6.16;83.19;98701.41;5093984;28;20382;-64
2021/12/17 09:44:48;;;;;;;6.13;5.53;;;;;;;6.03;83.14;98706.19;5093757;28;20811;-66
2021/12/17 09:47:13;;;;;;;6.25;5.65;;;;;;;5.87;84.34;98701.66;5091422;28;20448;-65
2021/12/17 09:49:38;;;;;;;6.40;5.80;;;;;;;5.94;84.49;98707.09;5090717;28;20397;-70
2021/12/17 09:52:04;;;;;;;6.43;5.78;;;;;;;6.32;83.65;98698.13;5093017;28;20386;-64
2021/12/17 09:54:30;;;;;;;6.20;5.60;;;;;;;6.40;82.80;98704.22;5093568;28;20386;-66
2021/12/17 09:56:55;;;;;;;6.03;5.43;;;;;;;6.46;82.41;98701.00;5093764;28;20750;-65
2021/12/17 09:59:21;;;;;;;6.50;5.50;;;;;;;6.23;82.15;98705.88;5093091;28;20843;-65
2021/12/17 10:01:47;;;;;;;5.97;5.38;;;;;;;6.18;81.67;98715.13;5093302;28;20379;-66
2021/12/17 10:04:30;;;;;;;6.30;5.67;;;;;;;6.29;81.77;98709.66;5093195;28;20550;-65
2021/12/17 10:07:18;;;;;;;6.20;5.60;;;;;;;6.03;82.84;98707.00;5093139;28;20410;-68
2021/12/17 10:10:01;;;;;;;6.75;6.05;;;;;;;6.29;82.82;98701.03;5091234;28;20452;-65
2021/12/17 10:12:28;;;;;;;5.68;5.07;;;;;;;6.42;81.40;98707.47;5092332;28;20543;-65
2021/12/17 10:15:16;;;;;;;5.85;5.25;;;;;;;6.04;81.92;98693.03;5092499;28;20397;-65
2021/12/17 10:17:54;;;;;;;5.80;5.22;;;;;;;6.03;82.53;98693.16;5093843;28;20752;-65
2021/12/17 10:20:21;;;;;;;7.25;5.68;;;;;;;5.98;82.01;98691.03;5092410;28;20546;-65
2021/12/17 10:23:07;;;;;;;5.68;5.18;;;;;;;6.16;82.01;98689.22;5092548;28;20394;-67
2021/12/17 10:25:35;;;;;;;7.38;5.90;;;;;;;6.57;80.05;98687.72;5092370;28;20394;-66
2021/12/17 10:28:05;;;;;;;6.55;5.68;;;;;;;6.41;80.41;98692.78;5089589;28;20723;-65
2021/12/17 10:30:36;;;;;;;6.60;4.97;;;;;;;6.42;80.07;98688.41;5092066;28;20390;-65
2021/12/17 10:33:04;;;;;;;5.88;5.28;;;;;;;6.57;79.47;98692.91;5090642;28;20380;-65
2021/12/17 10:35:33;;;;;;;6.35;5.68;;;;;;;6.36;79.37;98695.03;5092996;28;20440;-65
2021/12/17 10:38:04;;;;;;;6.47;5.77;;;;;;;6.40;79.03;98692.97;5093267;28;20882;-66
2021/12/17 10:40:40;;;;;;;5.80;5.20;;;;;;;6.23;80.74;98692.03;5093245;28;20406;-65
2021/12/17 10:43:22;;;;;;;6.83;6.13;;;;;;;6.40;80.56;98690.38;5090772;28;20386;-65
2021/12/17 10:46:04;;;;;;;7.53;6.50;;;;;;;6.36;81.13;98699.44;5091737;28;20374;-65
2021/12/17 10:54:20;;;;;;;8.45;6.85;;;;;;;6.19;82.60;98694.13;5091077;28;20749;-65
2021/12/17 10:56:45;;;;;;;8.18;6.80;;;;;;;6.12;83.22;98706.13;5093191;28;20374;-65
2021/12/17 10:59:16;;;;;;;7.97;6.93;;;;;;;6.17;83.19;98710.88;5093088;28;20397;-65
2021/12/17 11:01:50;;;;;;;7.95;6.60;;;;;;;6.22;82.92;98698.22;5093545;28;20378;-64
2021/12/17 11:04:22;;;;;;;7.93;7.03;;;;;;;6.10;83.16;98702.03;5092012;28;20390;-65
2021/12/17 11:06:55;;;;;;;7.63;6.83;;;;;;;6.19;83.30;98696.72;5092882;28;20874;-64
2021/12/17 11:09:38;;;;;;;7.82;7.03;;;;;;;6.00;83.82;98701.28;5093006;28;20386;-65
2021/12/17 11:12:12;;;;;;;8.13;7.07;;;;;;;5.91;84.51;98687.38;5091688;28;20743;-65
2021/12/17 11:14:37;;;;;;;8.60;7.07;;;;;;;5.82;85.83;98690.88;5091219;28;20422;-65
2021/12/17 11:17:03;;;;;;;8.00;6.90;;;;;;;5.81;85.42;98690.03;5092121;28;20465;-65
2021/12/17 11:19:30;;;;;;;8.07;7.20;;;;;;;5.95;84.85;98693.13;5092386;28;20401;-65
2021/12/17 11:21:55;;;;;;;8.10;7.15;;;;;;;5.85;84.59;98691.38;5092126;28;20431;-65
2021/12/17 11:24:22;;;;;;;7.95;6.57;;;;;;;5.79;85.20;98691.16;5092284;28;20394;-65
2021/12/17 11:26:48;;;;;;;7.43;6.50;;;;;;;5.92;85.37;98689.03;5091162;28;20379;-65
2021/12/17 11:29:16;;;;;;;8.15;6.78;;;;;;;5.85;85.33;98680.16;5090612;28;20378;-66
2021/12/17 11:31:42;;;;;;;9.00;8.10;;;;;;;5.86;85.95;98685.19;5072185;28;20868;-65
2021/12/17 11:34:09;;;;;;;8.52;7.65;;;;;;;5.96;85.65;98679.97;5072280;28;20441;-65
2021/12/17 11:36:35;;;;;;;7.70;6.88;;;;;;;6.04;85.51;98677.41;5072050;28;20403;-65
2021/12/17 11:39:19;;;;;;;9.93;7.90;;;;;;;5.89;86.04;98678.94;5072514;28;20419;-65
2021/12/17 11:41:44;;;;;;;8.32;6.93;;;;;;;6.04;85.66;98685.22;5071971;28;20385;-65
2021/12/17 11:44:12;;;;;;;9.27;7.57;;;;;;;5.82;86.67;98680.44;5072119;28;20384;-65
2021/12/17 11:46:39;;;;;;;9.98;7.63;;;;;;;6.00;85.89;98683.91;5072195;28;20395;-65
2021/12/17 11:49:11;;;;;;;8.07;7.03;;;;;;;6.10;84.80;98678.59;5072233;28;20392;-65
2021/12/17 11:51:37;;;;;;;8.65;7.72;;;;;;;5.80;86.58;98683.19;5070947;28;20395;-65
2021/12/17 11:54:07;;;;;;;9.27;7.63;;;;;;;5.93;86.19;98674.22;5071133;28;20863;-66
2021/12/17 11:56:52;;;;;;;7.93;7.13;;;;;;;6.14;84.91;98685.13;5072013;28;20388;-65
2021/12/17 11:59:27;;;;;;;8.03;7.23;;;;;;;6.21;83.60;98679.16;5072051;28;20500;-63
2021/12/17 12:02:05;;;;;;;8.67;7.60;;;;;;;6.10;84.26;98678.59;5070941;28;20458;-62
2021/12/17 12:04:53;;;;;;;8.15;7.35;;;;;;;6.16;84.48;98667.56;5071573;28;20432;-63
2021/12/17 12:07:24;;;;;;;7.95;7.15;;;;;;;6.18;84.00;98657.84;5070590;28;20733;-62
2021/12/17 12:09:57;;;;;;;8.27;7.00;;;;;;;6.12;84.60;98668.84;5071958;28;20392;-62
2021/12/17 12:12:35;;;;;;;8.07;6.80;;;;;;;6.09;84.79;98679.56;5071830;28;20387;-64
2021/12/17 12:15:23;;;;;;;7.60;6.60;;;;;;;6.11;85.27;98659.41;5071469;28;20793;-64
2021/12/17 12:17:57;;;;;;;7.43;6.50;;;;;;;6.34;83.87;98657.94;5071782;28;20432;-64
2021/12/17 12:20:49;;;;;;;8.15;6.43;;;;;;;6.19;83.49;98656.84;5070421;28;20459;-64
2021/12/17 12:23:29;;;;;;;7.77;6.83;;;;;;;6.35;83.63;98666.56;5071507;28;20474;-64
2021/12/17 12:26:01;;;;;;;7.55;6.60;;;;;;;6.62;82.84;98658.59;5070695;28;20832;-64
2021/12/17 12:28:44;;;;;;;7.82;6.95;;;;;;;6.45;83.40;98669.88;5071487;28;20384;-64
2021/12/17 12:31:09;;;;;;;7.85;7.05;;;;;;;6.55;82.81;98663.59;5071730;28;20386;-64
2021/12/17 12:33:35;;;;;;;9.75;7.20;;;;;;;6.42;83.21;98664.97;5071178;28;20811;-64
2021/12/17 12:36:00;;;;;;;8.90;7.20;;;;;;;6.56;83.10;98656.59;5071375;28;20486;-64
2021/12/17 12:38:33;;;;;;;7.72;6.85;;;;;;;6.47;83.57;98647.09;5071705;28;20391;-65
2021/12/17 12:41:01;;;;;;;9.48;6.93;;;;;;;6.38;83.44;98650.63;5071574;28;20404;-63
2021/12/17 12:43:32;;;;;;;8.65;6.63;;;;;;;6.49;84.08;98639.94;5071445;28;20681;-64
2021/12/17 12:46:00;;;;;;;7.18;6.47;;;;;;;6.54;83.53;98637.69;5071468;28;20383;-64
2021/12/17 12:48:38;;;;;;;7.78;6.65;;;;;;;6.35;83.66;98643.13;5069596;28;20445;-64
2021/12/17 12:51:20;;;;;;;7.30;6.57;;;;;;;6.53;83.39;98630.84;5073028;28;20488;-64
2021/12/17 12:54:08;;;;;;;8.55;6.88;;;;;;;6.58;83.21;98639.81;5088718;28;20382;-64
2021/12/17 12:56:38;;;;;;;9.13;7.13;;;;;;;6.50;84.00;98642.41;5090680;28;20386;-65
2021/12/17 12:59:06;;;;;;;8.02;6.90;;;;;;;6.44;84.24;98644.81;5074824;28;20413;-64
2021/12/17 13:01:31;;;;;;;8.35;7.25;;;;;;;6.57;83.86;98638.22;5090502;28;20382;-67
2021/12/17 13:03:57;;;;;;;7.40;6.60;;;;;;;6.59;84.01;98644.06;5091183;28;20389;-64
2021/12/17 13:06:22;;;;;;;8.23;6.93;;;;;;;6.79;83.58;98636.84;5094373;28;21049;-64
2021/12/17 13:08:53;;;;;;;6.80;6.13;;;;;;;6.87;82.91;98643.88;5094289;28;21018;-64
2021/12/17 13:11:20;;;;;;;7.65;6.80;;;;;;;6.69;84.46;98641.34;5093753;28;20897;-64
2021/12/17 13:16:34;;;;;;;7.45;6.50;;;;;;;6.68;84.04;98650.97;5095057;28;20394;-67
2021/12/17 13:22:14;;;;;;;7.20;6.50;;;;;;;6.68;84.67;98657.97;5094422;28;20405;-63
2021/12/17 13:24:39;;;;;;;6.50;5.90;;;;;;;6.67;84.70;98659.75;5093649;28;20746;-63
2021/12/17 13:27:10;;;;;;;7.73;6.27;;;;;;;6.80;84.26;98661.13;5094443;28;20394;-63
2021/12/17 13:29:44;;;;;;;6.93;5.90;;;;;;;6.66;84.42;98650.31;5094891;28;20464;-63
2021/12/17 13:32:11;;;;;;;7.35;6.40;;;;;;;6.78;84.51;98652.63;5094476;28;20409;-64
2021/12/17 13:34:42;;;;;;;7.68;6.40;;;;;;;7.04;83.37;98624.69;5094364;28;20439;-63
2021/12/17 13:37:11;;;;;;;7.40;6.40;;;;;;;6.98;83.45;98620.13;5093209;28;20416;-63
2021/12/17 13:39:49;;;;;;;8.90;7.15;;;;;;;7.10;83.31;98627.50;5093560;28;20414;-65
2021/12/17 13:42:23;;;;;;;8.00;7.03;;;;;;;6.75;84.76;98635.50;5094575;28;20745;-63
2021/12/17 13:44:53;;;;;;;7.45;6.65;;;;;;;6.77;85.64;98623.16;5094244;28;20390;-63
2021/12/17 13:47:30;;;;;;;7.20;6.47;;;;;;;6.80;85.44;98617.59;5093720;28;20405;-64
2021/12/17 13:50:23;;;;;;;8.27;6.90;;;;;;;6.88;84.78;98628.06;5094211;28;20394;-63
2021/12/17 13:52:55;;;;;;;7.18;6.47;;;;;;;6.91;84.71;98619.13;5093921;28;20755;-63
2021/12/17 13:55:38;;;;;;;6.80;5.88;;;;;;;6.97;83.97;98613.25;5093879;28;20397;-63
2021/12/17 13:58:22;;;;;;;6.90;5.95;;;;;;;6.92;84.65;98628.56;5094007;28;20391;-63
2021/12/17 14:00:53;;;;;;;6.87;6.17;;;;;;;6.82;85.27;98633.09;5093549;28;20406;-63
2021/12/17 14:03:22;;;;;;;7.88;6.22;;;;;;;6.80;85.78;98645.47;5093130;28;20398;-63
2021/12/17 14:05:51;;;;;;;7.03;6.32;;;;;;;6.73;86.15;98641.88;5093588;28;20406;-63
2021/12/17 14:08:21;;;;;;;7.78;6.57;;;;;;;6.87;85.24;98638.66;5093957;28;20405;-63
2021/12/17 14:10:49;;;;;;;6.88;6.18;;;;;;;6.73;85.76;98644.47;5094050;28;20978;-65
2021/12/17 14:13:17;;;;;;;7.55;6.35;;;;;;;6.70;85.70;98632.56;5093966;28;20393;-64
2021/12/17 14:15:43;;;;;;;6.97;6.27;;;;;;;6.68;85.62;98639.72;5092906;28;20416;-63
2021/12/17 14:18:10;;;;;;;6.57;5.87;;;;;;;6.82;85.29;98649.56;5092162;28;20894;-63
2021/12/17 14:20:44;;;;;;;7.10;5.88;;;;;;;6.84;85.31;98658.03;5093358;28;20409;-64
2021/12/17 14:23:15;;;;;;;10.05;7.05;;;;;;;6.84;85.79;98657.22;5092955;28;20397;-64
2021/12/17 14:25:44;;;;;;;7.43;6.72;;;;;;;6.74;87.36;98654.75;5093758;28;20397;-63
2021/12/17 14:28:15;;;;;;;8.32;7.15;;;;;;;6.79;87.47;98651.66;5092225;28;20401;-63
2021/12/17 14:30:52;;;;;;;9.40;7.50;;;;;;;6.69;88.48;98649.97;5093514;28;20389;-63